Time;durP1;ratioP1;P1;durP2;ratioP2;P2;SDS_P1;SDS_P2;PMS_P1;PMS_P2;Temp;Humidity;BMP_temperature;BMP_pressure;BME280_temperature;BME280_humidity;BME280_pressure;Samples;Min_cycle;Max_cycle;Signal;HPM_P1;HPM_P2
2023/08/26 00:00:30;;;;;;;7.07;2.25;;;;;;;25.30;48.26;100759.94;5053662;28;20029;-62
2023/08/26 00:02:56;;;;;;;6.45;2.58;;;;;;;25.28;48.44;100764.81;5055206;28;20029;-62
2023/08/26 00:05:21;;;;;;;4.90;2.20;;;;;;;25.23;47.75;100758.34;5056205;28;20036;-62
2023/08/26 00:07:47;;;;;;;4.55;2.30;;;;;;;25.18;47.86;100760.91;5074123;28;20048;-62
2023/08/26 00:10:12;;;;;;;2.80;1.88;;;;;;;25.13;47.75;100766.22;5075150;28;20036;-62
2023/08/26 00:12:38;;;;;;;5.68;1.90;;;;;;;25.13;47.99;100777.19;5076303;28;20033;-62
2023/08/26 00:15:04;;;;;;;9.02;2.10;;;;;;;25.09;47.53;100778.72;5058418;28;20047;-62
2023/08/26 00:17:29;;;;;;;4.93;2.13;;;;;;;25.05;47.43;100782.97;5074907;28;20118;-62
2023/08/26 00:19:54;;;;;;;3.35;1.63;;;;;;;24.99;47.17;100781.94;5074907;28;20038;-62
2023/08/26 00:22:20;;;;;;;2.95;1.50;;;;;;;24.94;47.21;100778.22;5076099;28;20515;-62
2023/08/26 00:24:47;;;;;;;4.68;2.25;;;;;;;24.89;47.23;100782.47;5075906;28;20782;-62
2023/08/26 00:27:12;;;;;;;4.28;1.73;;;;;;;24.87;46.88;100783.75;5074736;28;20044;-61
2023/08/26 00:29:38;;;;;;;3.50;1.33;;;;;;;24.83;47.28;100786.09;5074784;28;20040;-61
2023/08/26 00:32:04;;;;;;;2.10;1.17;;;;;;;24.77;46.82;100775.16;5074627;28;20056;-62
2023/08/26 00:34:29;;;;;;;2.03;1.17;;;;;;;24.77;46.77;100786.13;5074824;28;20115;-61
2023/08/26 00:36:54;;;;;;;3.88;1.20;;;;;;;24.73;46.84;100785.75;5069585;28;20064;-62
2023/08/26 00:39:20;;;;;;;2.05;1.42;;;;;;;24.70;46.48;100786.19;5055880;28;20079;-62
2023/08/26 00:41:46;;;;;;;1.48;1.15;;;;;;;24.67;46.44;100786.63;5054605;28;20078;-61
2023/08/26 00:44:11;;;;;;;2.88;1.13;;;;;;;24.61;46.60;100773.81;5054912;28;20112;-62
2023/08/26 00:46:37;;;;;;;2.28;1.00;;;;;;;24.58;46.58;100781.63;5054728;28;20117;-62
2023/08/26 00:49:02;;;;;;;6.10;1.92;;;;;;;24.54;46.50;100785.88;5054992;28;20493;-61
2023/08/26 00:51:28;;;;;;;3.42;1.25;;;;;;;24.46;46.34;100784.22;5056370;28;20031;-62
2023/08/26 00:53:54;;;;;;;4.97;2.55;;;;;;;24.44;46.39;100786.34;5038104;28;20029;-62
2023/08/26 00:56:20;;;;;;;2.42;1.20;;;;;;;24.41;46.31;100784.06;5054828;28;20136;-62
2023/08/26 00:58:46;;;;;;;5.13;1.38;;;;;;;24.38;46.25;100787.25;5054538;28;20091;-62
2023/08/26 01:01:11;;;;;;;1.63;1.10;;;;;;;24.34;46.17;100795.03;5054948;28;20029;-62
2023/08/26 01:03:37;;;;;;;4.28;2.22;;;;;;;24.29;46.33;100783.06;5054670;28;20029;-62
2023/08/26 01:06:03;;;;;;;2.08;1.40;;;;;;;24.24;46.23;100791.97;5054631;28;20025;-62
2023/08/26 01:08:28;;;;;;;7.15;1.70;;;;;;;24.20;46.45;100789.88;5056603;28;20056;-61
2023/08/26 01:11:09;;;;;;;9.05;1.48;;;;;;;24.17;45.95;100784.84;5053451;28;20554;-61
2023/08/26 01:13:52;;;;;;;2.55;1.35;;;;;;;24.15;46.70;100792.41;5047295;28;20033;-62
2023/08/26 01:16:22;;;;;;;2.72;1.17;;;;;;;24.05;46.54;100786.56;5055788;28;20067;-62
2023/08/26 01:18:48;;;;;;;1.33;1.02;;;;;;;23.98;46.33;100794.78;5054315;28;20504;-62
2023/08/26 01:21:14;;;;;;;4.85;1.70;;;;;;;23.95;46.08;100780.72;5054635;28;20044;-62
2023/08/26 01:23:41;;;;;;;4.82;1.42;;;;;;;23.93;46.72;100788.28;5037513;28;20408;-64
2023/08/26 01:26:06;;;;;;;4.78;1.50;;;;;;;23.90;46.69;100792.28;5053954;28;20033;-63
2023/08/26 01:28:32;;;;;;;3.75;1.40;;;;;;;23.86;46.33;100796.53;5053514;28;20041;-63
2023/08/26 01:31:00;;;;;;;3.40;1.40;;;;;;;23.83;46.18;100791.50;5053561;28;20496;-64
2023/08/26 01:33:31;;;;;;;3.95;1.45;;;;;;;23.81;46.23;100790.88;5053623;28;20041;-63
2023/08/26 01:35:59;;;;;;;3.63;1.50;;;;;;;23.78;46.60;100792.13;5036726;28;20033;-63
2023/08/26 01:38:25;;;;;;;3.60;1.20;;;;;;;23.75;46.41;100787.13;5053355;28;20036;-63
2023/08/26 01:40:56;;;;;;;7.03;1.75;;;;;;;23.72;46.20;100793.00;5053286;28;20501;-63
2023/08/26 01:43:22;;;;;;;1.90;1.10;;;;;;;23.69;46.16;100785.22;5053305;28;20439;-63
2023/08/26 01:45:47;;;;;;;6.07;1.65;;;;;;;23.66;46.10;100796.59;5053311;28;20025;-63
2023/08/26 01:48:13;;;;;;;6.07;1.27;;;;;;;23.63;46.34;100787.97;5053088;28;20120;-63
2023/08/26 01:50:38;;;;;;;2.08;1.58;;;;;;;23.59;46.66;100790.28;5053203;28;20033;-64
2023/08/26 01:53:04;;;;;;;2.95;1.40;;;;;;;23.55;46.44;100791.78;5053369;28;20037;-63
2023/08/26 01:55:30;;;;;;;2.17;1.15;;;;;;;23.52;46.47;100791.38;5052958;28;20037;-63
2023/08/26 01:57:55;;;;;;;4.20;1.25;;;;;;;23.53;46.86;100804.84;5052909;28;20108;-63
2023/08/26 02:00:20;;;;;;;8.02;1.85;;;;;;;23.52;46.17;100799.59;5054272;28;20040;-63
2023/08/26 02:02:46;;;;;;;5.57;1.63;;;;;;;23.49;46.38;100800.00;5052746;28;20029;-63
2023/08/26 02:05:11;;;;;;;4.72;1.88;;;;;;;23.45;46.08;100799.59;5052881;28;20037;-63
2023/08/26 02:07:36;;;;;;;7.22;1.23;;;;;;;23.41;46.29;100801.09;5053822;28;20163;-63
2023/08/26 02:10:02;;;;;;;3.40;2.00;;;;;;;23.35;46.25;100806.53;5052911;28;20033;-64
2023/08/26 02:12:28;;;;;;;2.90;1.38;;;;;;;23.27;46.32;100798.53;5052434;28;20497;-63
2023/08/26 02:14:53;;;;;;;4.60;1.67;;;;;;;23.28;46.14;100808.44;5053919;28;20104;-63
2023/08/26 02:17:19;;;;;;;6.38;2.45;;;;;;;23.26;46.23;100802.31;5052585;28;20112;-64
2023/08/26 02:19:44;;;;;;;5.50;1.50;;;;;;;23.24;46.83;100808.00;5053604;28;20048;-64
2023/08/26 02:22:11;;;;;;;6.57;2.10;;;;;;;23.22;46.48;100807.41;5052273;28;20037;-63
2023/08/26 02:24:36;;;;;;;4.47;1.67;;;;;;;23.19;46.44;100810.53;5053873;28;20033;-63
2023/08/26 02:27:02;;;;;;;4.28;1.85;;;;;;;23.17;46.16;100812.66;5053791;28;20034;-63
2023/08/26 02:29:30;;;;;;;3.08;1.38;;;;;;;23.18;46.39;100811.59;5052077;28;20071;-64
2023/08/26 02:31:55;;;;;;;5.75;1.80;;;;;;;23.17;47.41;100809.94;5052181;28;20017;-64
2023/08/26 02:34:21;;;;;;;4.40;1.25;;;;;;;23.13;46.72;100808.66;5052495;28;20500;-63
2023/08/26 02:36:46;;;;;;;4.47;1.50;;;;;;;23.16;46.28;100809.09;5053222;28;20027;-62
2023/08/26 02:39:12;;;;;;;7.07;1.83;;;;;;;23.15;46.23;100798.34;5035366;28;20167;-62
2023/08/26 02:41:37;;;;;;;11.07;2.08;;;;;;;23.15;46.49;100799.19;5053597;28;20089;-62
2023/08/26 02:44:03;;;;;;;7.20;1.70;;;;;;;23.17;46.69;100804.47;5051990;28;20472;-62
2023/08/26 02:46:28;;;;;;;3.75;1.05;;;;;;;23.17;46.18;100793.53;5052252;28;20021;-63
2023/08/26 02:48:56;;;;;;;4.47;1.83;;;;;;;23.18;46.62;100800.66;5053320;28;20021;-63
2023/08/26 02:51:21;;;;;;;7.72;1.63;;;;;;;23.16;46.81;100783.63;5019437;28;20032;-62
2023/08/26 02:53:46;;;;;;;9.15;2.17;;;;;;;23.18;46.16;100785.09;5053472;28;20419;-62
2023/08/26 02:56:12;;;;;;;6.53;1.40;;;;;;;23.16;46.64;100787.22;5051856;28;20108;-62
2023/08/26 02:58:37;;;;;;;3.97;1.15;;;;;;;23.18;46.14;100789.72;5051999;28;20406;-62
2023/08/26 03:01:03;;;;;;;1.83;0.88;;;;;;;23.16;46.92;100780.91;5053008;28;20055;-62
2023/08/26 03:03:28;;;;;;;3.17;1.38;;;;;;;23.17;46.19;100785.34;5051637;28;20033;-62
2023/08/26 03:05:57;;;;;;;4.50;1.27;;;;;;;23.19;46.60;100785.94;5053006;28;20455;-62
2023/08/26 03:08:23;;;;;;;5.57;1.33;;;;;;;23.17;46.17;100793.53;5053091;28;20024;-62
2023/08/26 03:11:00;;;;;;;6.75;2.00;;;;;;;23.17;46.06;100786.16;5052144;28;20028;-63
2023/08/26 03:13:25;;;;;;;6.03;1.33;;;;;;;23.17;46.31;100786.16;5035133;28;20033;-63
2023/08/26 03:15:51;;;;;;;4.05;1.08;;;;;;;23.15;46.38;100781.94;5052989;28;20033;-62
2023/08/26 03:18:16;;;;;;;2.80;0.90;;;;;;;23.16;46.11;100780.91;5051603;28;20036;-62
2023/08/26 03:20:42;;;;;;;2.25;1.23;;;;;;;23.16;46.61;100786.38;5053101;28;20514;-61
2023/08/26 03:23:07;;;;;;;3.33;1.20;;;;;;;23.15;46.17;100784.69;5052157;28;20078;-62
2023/08/26 03:25:40;;;;;;;3.35;0.90;;;;;;;23.14;46.04;100783.03;5052571;28;20082;-63
2023/08/26 03:28:08;;;;;;;1.67;0.70;;;;;;;23.13;46.45;100792.25;5051313;28;20493;-62
2023/08/26 03:30:36;;;;;;;4.65;1.55;;;;;;;23.09;46.64;100797.28;5051706;28;20041;-62
2023/08/26 03:33:02;;;;;;;2.55;0.90;;;;;;;23.08;47.01;100800.25;5051573;28;20032;-63
2023/08/26 03:35:27;;;;;;;5.05;1.33;;;;;;;23.05;46.60;100800.69;5056588;28;20389;-62
2023/08/26 03:37:53;;;;;;;2.05;0.77;;;;;;;23.02;46.89;100801.09;5058199;28;20033;-62
2023/08/26 03:40:22;;;;;;;4.95;0.85;;;;;;;22.98;46.98;100805.28;5055952;28;20451;-62
2023/08/26 03:42:49;;;;;;;1.85;0.85;;;;;;;22.91;46.03;100804.47;5058084;28;20503;-63
2023/08/26 03:45:16;;;;;;;4.07;1.58;;;;;;;22.88;46.95;100804.88;5059333;28;20044;-62
2023/08/26 03:47:41;;;;;;;0.85;0.60;;;;;;;22.84;46.85;100792.66;5059364;28;20037;-62
2023/08/26 03:50:07;;;;;;;0.70;0.45;;;;;;;22.79;46.61;100801.50;5041522;28;20032;-62
2023/08/26 03:52:32;;;;;;;5.47;0.73;;;;;;;22.80;46.36;100807.81;5041272;28;20037;-62
2023/08/26 03:54:58;;;;;;;0.88;0.50;;;;;;;22.77;46.65;100805.50;5058417;28;20025;-62
2023/08/26 03:57:23;;;;;;;0.80;0.50;;;;;;;22.73;47.07;100801.50;5058414;28;20151;-62
2023/08/26 03:59:48;;;;;;;2.65;0.93;;;;;;;22.70;46.01;100810.13;5058073;28;20052;-62
2023/08/26 04:02:14;;;;;;;6.32;1.35;;;;;;;22.66;46.63;100811.59;5059116;28;20025;-62
2023/08/26 04:04:39;;;;;;;1.95;0.40;;;;;;;22.59;46.53;100815.09;5057921;28;20102;-62
2023/08/26 04:07:05;;;;;;;6.10;1.63;;;;;;;22.55;46.19;100822.06;5058860;28;20040;-62
2023/08/26 04:09:30;;;;;;;3.53;0.95;;;;;;;22.52;47.14;100822.47;5059099;28;20111;-62
2023/08/26 04:11:56;;;;;;;3.72;0.90;;;;;;;22.50;46.07;100824.53;5058989;28;20408;-61
2023/08/26 04:14:21;;;;;;;1.02;0.75;;;;;;;22.48;46.24;100817.59;5058981;28;20064;-62
2023/08/26 04:16:47;;;;;;;2.47;0.50;;;;;;;22.48;47.06;100825.78;5057598;28;20029;-62
2023/08/26 04:19:14;;;;;;;3.17;0.80;;;;;;;22.47;47.20;100822.22;5057853;28;20033;-62
2023/08/26 04:21:40;;;;;;;2.60;1.40;;;;;;;22.47;46.19;100818.66;5057911;28;20366;-62
2023/08/26 04:24:06;;;;;;;3.35;0.80;;;;;;;22.47;46.89;100822.22;5041134;28;20029;-62
2023/08/26 04:26:32;;;;;;;2.45;1.05;;;;;;;22.46;46.37;100822.44;5057403;28;20065;-62
2023/08/26 04:28:57;;;;;;;1.60;0.43;;;;;;;22.46;46.78;100819.72;5058906;28;20071;-62
2023/08/26 04:31:22;;;;;;;3.60;0.57;;;;;;;22.45;46.96;100821.59;5057436;28;20033;-63
2023/08/26 04:33:48;;;;;;;2.42;0.50;;;;;;;22.45;46.17;100826.19;5057708;28;20497;-62
2023/08/26 04:36:13;;;;;;;3.05;0.85;;;;;;;22.44;46.41;100833.59;5057506;28;20036;-62
2023/08/26 04:38:39;;;;;;;3.42;0.57;;;;;;;22.40;46.46;100829.56;5057561;28;20025;-62
2023/08/26 04:41:05;;;;;;;2.03;0.60;;;;;;;22.43;46.88;100839.22;5058823;28;20551;-62
2023/08/26 04:43:30;;;;;;;3.42;0.73;;;;;;;22.40;47.07;100837.75;5058901;28;20029;-63
2023/08/26 04:45:56;;;;;;;2.50;0.80;;;;;;;22.40;46.48;100843.22;5056319;28;20111;-62
2023/08/26 04:48:21;;;;;;;2.20;0.52;;;;;;;22.41;47.00;100842.19;5055387;28;20037;-62
2023/08/26 04:50:46;;;;;;;6.07;1.00;;;;;;;22.42;46.95;100840.25;5054271;28;20060;-62
2023/08/26 04:53:12;;;;;;;2.47;0.68;;;;;;;22.40;46.54;100840.47;5055543;28;20032;-62
2023/08/26 04:55:37;;;;;;;3.35;0.85;;;;;;;22.44;46.69;100849.13;5037566;28;20112;-62
2023/08/26 04:58:03;;;;;;;1.13;0.55;;;;;;;22.44;46.23;100849.97;5054215;28;20492;-62
2023/08/26 05:00:28;;;;;;;2.08;0.70;;;;;;;22.45;46.24;100857.09;5037619;28;20032;-62
2023/08/26 05:02:54;;;;;;;4.68;0.57;;;;;;;22.44;46.77;100858.16;5054059;28;20037;-62
2023/08/26 05:05:19;;;;;;;1.10;0.50;;;;;;;22.45;45.64;100854.34;5055208;28;20107;-62
2023/08/26 05:07:45;;;;;;;2.97;0.60;;;;;;;22.43;46.47;100848.28;5054446;28;20080;-62
2023/08/26 05:10:10;;;;;;;2.17;0.68;;;;;;;22.48;45.88;100861.28;5056662;28;20135;-62
2023/08/26 05:12:35;;;;;;;1.60;0.60;;;;;;;22.51;46.76;100863.59;5056923;28;20025;-63
2023/08/26 05:15:02;;;;;;;4.18;0.75;;;;;;;22.59;46.64;100869.72;5057185;28;20037;-62
2023/08/26 05:17:27;;;;;;;3.45;0.50;;;;;;;22.60;46.70;100865.97;5057271;28;20033;-62
2023/08/26 05:19:53;;;;;;;3.35;0.40;;;;;;;22.68;46.36;100881.34;5054866;28;20396;-62
2023/08/26 05:22:19;;;;;;;6.93;0.70;;;;;;;22.74;46.43;100885.97;5055419;28;20029;-62
2023/08/26 05:24:44;;;;;;;2.03;0.50;;;;;;;22.81;45.37;100886.00;5054287;28;20488;-61
2023/08/26 05:27:10;;;;;;;7.50;1.25;;;;;;;22.87;45.78;100891.47;5058842;28;20156;-63
2023/08/26 05:29:35;;;;;;;3.42;0.80;;;;;;;22.92;46.24;100882.66;5057402;28;20033;-62
2023/08/26 05:32:00;;;;;;;1.52;0.55;;;;;;;23.00;45.75;100879.72;5053762;28;20034;-63
2023/08/26 05:34:26;;;;;;;1.65;0.55;;;;;;;23.07;45.52;100877.81;5053520;28;20040;-62
2023/08/26 05:36:51;;;;;;;1.38;0.63;;;;;;;23.18;45.84;100875.31;5054600;28;20033;-63
2023/08/26 05:39:17;;;;;;;0.95;0.57;;;;;;;23.27;45.92;100878.66;5053562;28;20093;-62
2023/08/26 05:41:42;;;;;;;2.80;0.60;;;;;;;23.41;45.87;100885.84;5054620;28;20053;-62
2023/08/26 05:44:07;;;;;;;1.60;0.90;;;;;;;23.51;45.18;100878.03;5053116;28;20029;-62
2023/08/26 05:46:33;;;;;;;4.45;0.80;;;;;;;23.63;44.99;100875.50;5054346;28;20033;-62
2023/08/26 05:48:58;;;;;;;1.48;0.40;;;;;;;23.75;45.07;100874.66;5053046;28;20460;-62
2023/08/26 05:51:23;;;;;;;1.33;0.55;;;;;;;23.89;44.86;100875.47;5053105;28;20044;-62
2023/08/26 05:53:49;;;;;;;4.47;0.60;;;;;;;23.82;44.82;100873.78;5036489;28;20108;-62
2023/08/26 05:56:14;;;;;;;1.13;0.50;;;;;;;23.77;45.15;100871.69;5052741;28;20540;-62
2023/08/26 05:58:40;;;;;;;2.00;0.60;;;;;;;23.78;44.97;100873.38;5053627;28;20091;-62
2023/08/26 06:01:05;;;;;;;2.40;0.60;;;;;;;23.76;44.98;100872.75;5053162;28;20029;-61
2023/08/26 06:03:30;;;;;;;3.03;0.85;;;;;;;23.73;45.25;100871.28;5054093;28;20037;-63
2023/08/26 06:05:56;;;;;;;2.25;0.65;;;;;;;23.71;44.94;100862.44;5053782;28;20048;-63
2023/08/26 06:08:21;;;;;;;1.25;0.47;;;;;;;23.73;44.60;100865.81;5052777;28;20106;-63
2023/08/26 06:10:46;;;;;;;1.75;0.85;;;;;;;23.72;45.06;100857.81;5051695;28;20040;-63
2023/08/26 06:13:12;;;;;;;2.67;0.80;;;;;;;23.71;44.57;100862.44;5053984;28;20044;-64
2023/08/26 06:15:38;;;;;;;5.43;0.55;;;;;;;23.96;44.61;100850.78;5052493;28;20033;-63
2023/08/26 06:18:03;;;;;;;5.60;0.70;;;;;;;24.23;44.33;100853.25;5053910;28;20449;-63
2023/08/26 06:20:29;;;;;;;2.38;0.75;;;;;;;24.46;44.50;100851.84;5052649;28;20040;-63
2023/08/26 06:22:55;;;;;;;1.65;0.47;;;;;;;24.64;43.87;100855.56;5052713;28;20028;-63
2023/08/26 06:25:20;;;;;;;1.05;0.30;;;;;;;24.83;43.48;100857.38;5053836;28;20090;-63
2023/08/26 06:27:45;;;;;;;1.65;0.52;;;;;;;25.02;43.35;100857.41;5052683;28;20523;-63
2023/08/26 06:30:11;;;;;;;2.13;1.17;;;;;;;25.17;43.17;100860.69;5052814;28;20060;-63
2023/08/26 06:32:36;;;;;;;0.82;0.38;;;;;;;25.30;43.44;100858.66;5053472;28;20041;-63
2023/08/26 06:35:04;;;;;;;0.80;0.50;;;;;;;25.44;42.86;100864.88;5052431;28;20404;-63
2023/08/26 06:37:29;;;;;;;3.63;0.75;;;;;;;25.57;43.02;100859.31;5053518;28;20396;-63
2023/08/26 06:39:54;;;;;;;1.27;0.32;;;;;;;25.68;42.96;100853.06;5052152;28;20033;-63
2023/08/26 06:42:20;;;;;;;1.13;0.93;;;;;;;25.82;42.67;100857.34;5053493;28;20464;-63
2023/08/26 06:44:45;;;;;;;2.08;0.45;;;;;;;25.98;42.73;100854.00;5052120;28;20037;-63
2023/08/26 06:47:10;;;;;;;1.63;0.70;;;;;;;26.13;42.58;100841.78;5053203;28;20114;-64
2023/08/26 06:49:36;;;;;;;1.02;0.50;;;;;;;26.26;42.41;100845.22;5053095;28;20094;-63
2023/08/26 06:52:02;;;;;;;3.92;0.75;;;;;;;26.35;41.92;100841.09;5053047;28;20052;-64
2023/08/26 06:54:28;;;;;;;0.90;0.50;;;;;;;26.61;41.46;100850.84;5045434;28;20067;-63
2023/08/26 06:56:53;;;;;;;5.03;0.68;;;;;;;26.77;41.66;100849.38;5035208;28;20435;-63
2023/08/26 06:59:19;;;;;;;3.60;0.52;;;;;;;26.89;41.44;100842.00;5051990;28;20037;-64
2023/08/26 07:01:44;;;;;;;1.83;0.30;;;;;;;26.95;40.57;100852.91;5051622;28;20090;-63
2023/08/26 07:04:11;;;;;;;4.13;0.98;;;;;;;27.06;40.49;100843.84;5053028;28;20032;-63
2023/08/26 07:06:36;;;;;;;2.95;0.50;;;;;;;27.16;41.24;100844.09;5051318;28;20036;-63
2023/08/26 07:09:03;;;;;;;2.22;0.60;;;;;;;27.29;40.89;100847.69;5051023;28;20408;-64
2023/08/26 07:11:29;;;;;;;4.07;0.63;;;;;;;27.43;40.65;100838.16;5051624;28;20054;-64
2023/08/26 07:13:54;;;;;;;1.60;0.75;;;;;;;27.58;40.14;100846.78;5051662;28;20614;-62
2023/08/26 07:16:19;;;;;;;3.50;1.40;;;;;;;27.76;40.58;100835.63;5051618;28;20032;-62
2023/08/26 07:18:45;;;;;;;1.63;0.73;;;;;;;27.94;40.41;100841.00;5051107;28;20053;-62
2023/08/26 07:21:10;;;;;;;1.00;0.40;;;;;;;28.10;40.40;100840.25;5052727;28;20036;-62
2023/08/26 07:23:36;;;;;;;1.55;0.60;;;;;;;28.26;39.78;100833.97;5052592;28;20041;-63
2023/08/26 07:26:01;;;;;;;4.07;0.70;;;;;;;28.44;39.35;100829.34;5051409;28;20556;-62
2023/08/26 07:28:27;;;;;;;3.28;0.60;;;;;;;28.58;39.04;100837.09;5052704;28;20029;-62
2023/08/26 07:30:53;;;;;;;3.33;0.47;;;;;;;28.73;38.95;100839.31;5051410;28;20381;-62
2023/08/26 07:33:19;;;;;;;1.08;0.45;;;;;;;28.83;39.09;100839.50;5052733;28;20557;-63
2023/08/26 07:35:44;;;;;;;1.45;0.40;;;;;;;28.91;38.67;100835.50;5052534;28;20045;-62
2023/08/26 07:38:10;;;;;;;1.30;0.40;;;;;;;29.05;38.76;100826.66;5052528;28;20025;-62
2023/08/26 07:40:35;;;;;;;1.63;0.50;;;;;;;29.18;38.46;100836.50;5052631;28;20036;-63
2023/08/26 07:43:00;;;;;;;2.10;0.50;;;;;;;29.30;38.58;100827.09;5051385;28;20051;-62
2023/08/26 07:45:26;;;;;;;1.95;0.40;;;;;;;29.38;37.90;100834.94;5052585;28;20033;-62
2023/08/26 07:47:51;;;;;;;3.05;0.30;;;;;;;29.47;38.05;100834.50;5051154;28;20045;-62
2023/08/26 07:50:17;;;;;;;3.83;0.68;;;;;;;29.62;37.32;100826.47;5050967;28;20025;-62
2023/08/26 07:52:43;;;;;;;3.42;0.40;;;;;;;29.73;37.37;100833.81;5051161;28;20032;-63
2023/08/26 07:55:08;;;;;;;3.10;0.35;;;;;;;29.88;37.40;100842.31;5051107;28;20033;-63
2023/08/26 07:57:34;;;;;;;2.55;0.60;;;;;;;29.98;36.79;100832.22;5051121;28;20033;-63
2023/08/26 07:59:59;;;;;;;1.85;0.57;;;;;;;30.13;37.39;100837.13;5051152;28;20033;-62
2023/08/26 08:02:25;;;;;;;1.15;0.38;;;;;;;30.21;37.06;100842.19;5051132;28;20067;-62
2023/08/26 08:04:50;;;;;;;4.00;0.50;;;;;;;30.32;36.75;100832.91;5051164;28;20083;-63
2023/08/26 08:07:15;;;;;;;0.90;0.45;;;;;;;30.52;36.52;100848.94;5050908;28;20036;-63
2023/08/26 08:09:41;;;;;;;0.85;0.47;;;;;;;30.65;36.36;100842.16;5052527;28;20381;-63
2023/08/26 08:12:08;;;;;;;1.65;0.30;;;;;;;30.79;36.34;100841.50;5051273;28;20563;-63
2023/08/26 08:14:33;;;;;;;2.15;0.50;;;;;;;30.96;35.76;100849.72;5052501;28;20033;-62
2023/08/26 08:16:59;;;;;;;0.88;0.75;;;;;;;31.08;35.81;100848.44;5050929;28;20117;-62
2023/08/26 08:19:24;;;;;;;0.60;0.38;;;;;;;31.16;35.56;100844.31;5051008;28;20056;-62
2023/08/26 08:21:50;;;;;;;2.67;0.60;;;;;;;31.22;35.79;100837.72;5037259;28;20120;-62
2023/08/26 08:24:15;;;;;;;1.15;0.82;;;;;;;31.33;35.11;100844.19;5056075;28;20407;-63
2023/08/26 08:26:43;;;;;;;1.40;0.50;;;;;;;31.38;35.02;100842.28;5037918;28;20036;-62
2023/08/26 08:29:10;;;;;;;0.68;0.30;;;;;;;31.51;35.08;100846.56;5056106;28;20519;-62
2023/08/26 08:31:35;;;;;;;2.05;0.50;;;;;;;31.62;35.44;100843.59;5054517;28;20040;-62
2023/08/26 08:34:01;;;;;;;2.40;0.52;;;;;;;31.74;35.28;100829.56;5054635;28;20033;-62
2023/08/26 08:36:26;;;;;;;2.75;0.40;;;;;;;31.82;35.01;100833.75;5054575;28;20492;-62
2023/08/26 08:38:51;;;;;;;2.75;0.40;;;;;;;31.91;33.86;100840.44;5055757;28;20055;-62
2023/08/26 08:41:18;;;;;;;0.60;0.43;;;;;;;31.97;34.30;100829.09;5055703;28;20029;-63
2023/08/26 08:43:45;;;;;;;2.65;0.30;;;;;;;32.05;33.65;100830.56;5054445;28;20112;-62
2023/08/26 08:46:10;;;;;;;0.80;0.38;;;;;;;32.13;34.48;100824.50;5055525;28;20029;-63
2023/08/26 08:48:36;;;;;;;1.83;0.40;;;;;;;32.25;33.47;100825.06;5054276;28;20051;-63
2023/08/26 08:51:03;;;;;;;1.75;0.30;;;;;;;32.37;34.08;100822.91;5054414;28;20167;-62
2023/08/26 08:53:32;;;;;;;3.10;1.88;;;;;;;32.44;33.37;100836.53;5054236;28;20037;-63
2023/08/26 08:56:00;;;;;;;1.85;0.60;;;;;;;32.52;33.19;100827.66;5054417;28;20120;-63
2023/08/26 08:58:26;;;;;;;2.38;0.50;;;;;;;32.68;34.20;100837.72;5054195;28;20067;-63
2023/08/26 09:00:52;;;;;;;1.45;0.40;;;;;;;32.81;33.32;100839.94;5054032;28;20037;-63
2023/08/26 09:03:18;;;;;;;2.55;0.40;;;;;;;32.94;33.13;100839.41;5054375;28;20427;-63
2023/08/26 09:05:43;;;;;;;1.90;0.52;;;;;;;33.03;32.95;100836.94;5054316;28;20037;-63
2023/08/26 09:08:09;;;;;;;2.25;0.47;;;;;;;33.12;33.20;100840.81;5055230;28;20029;-62
2023/08/26 09:10:35;;;;;;;2.30;0.57;;;;;;;33.23;33.20;100836.94;5054087;28;20051;-63
2023/08/26 09:13:03;;;;;;;2.58;0.50;;;;;;;33.32;32.53;100847.22;5053891;28;20040;-63
2023/08/26 09:15:28;;;;;;;1.35;0.63;;;;;;;33.41;32.62;100844.72;5054988;28;20045;-65
2023/08/26 09:18:00;;;;;;;3.03;0.57;;;;;;;33.46;32.53;100841.06;5053704;28;20017;-63
2023/08/26 09:20:26;;;;;;;0.28;0.20;;;;;;;33.61;32.74;100844.72;5053753;28;20041;-63
2023/08/26 09:23:02;;;;;;;1.27;0.43;;;;;;;33.70;32.78;100847.72;5055215;28;20029;-62
2023/08/26 09:25:30;;;;;;;3.42;0.68;;;;;;;33.71;31.88;100847.47;5054817;28;20017;-63
2023/08/26 09:27:56;;;;;;;2.90;0.70;;;;;;;33.82;31.64;100840.75;5037140;28;20428;-63
2023/08/26 09:30:21;;;;;;;0.57;0.20;;;;;;;33.98;32.07;100836.81;5055203;28;20080;-62
2023/08/26 09:32:49;;;;;;;1.00;0.35;;;;;;;34.09;31.75;100839.59;5053531;28;20112;-63
2023/08/26 09:35:16;;;;;;;0.95;0.30;;;;;;;34.16;32.27;100840.09;5053682;28;20032;-63
2023/08/26 09:37:44;;;;;;;2.33;0.40;;;;;;;34.36;31.40;100837.22;5053446;28;20457;-63
2023/08/26 09:40:16;;;;;;;1.63;0.45;;;;;;;34.55;31.18;100843.78;5053669;28;20090;-63
2023/08/26 09:42:42;;;;;;;2.08;0.40;;;;;;;34.72;31.15;100838.72;5053715;28;20437;-63
2023/08/26 09:45:13;;;;;;;0.47;0.32;;;;;;;35.09;30.98;100839.00;5054836;28;20044;-63
2023/08/26 09:47:39;;;;;;;2.13;0.55;;;;;;;35.55;30.46;100838.59;5053362;28;20435;-63
2023/08/26 09:50:05;;;;;;;1.33;0.68;;;;;;;35.71;30.45;100842.88;5053546;28;20083;-64
2023/08/26 09:52:40;;;;;;;3.63;0.80;;;;;;;36.61;29.21;100832.56;5053428;28;20029;-63
2023/08/26 09:55:06;;;;;;;2.05;0.45;;;;;;;37.65;28.33;100835.88;5036940;28;20029;-64
2023/08/26 09:57:31;;;;;;;2.08;0.68;;;;;;;36.34;29.62;100834.34;5053416;28;20044;-63
2023/08/26 09:59:56;;;;;;;2.22;0.68;;;;;;;37.62;27.91;100842.09;5054640;28;20033;-63
2023/08/26 10:02:22;;;;;;;0.60;0.40;;;;;;;37.69;27.93;100841.69;5053493;28;20451;-63
2023/08/26 10:04:54;;;;;;;1.45;0.63;;;;;;;37.28;28.95;100835.97;5054476;28;20033;-63
2023/08/26 10:07:22;;;;;;;0.60;0.30;;;;;;;36.81;28.85;100828.66;5052903;28;20033;-64
2023/08/26 10:10:04;;;;;;;1.00;0.30;;;;;;;37.24;28.31;100838.56;5054564;28;20033;-63
2023/08/26 10:12:36;;;;;;;1.07;0.20;;;;;;;37.23;28.19;100836.91;5053143;28;20033;-64
2023/08/26 10:15:02;;;;;;;;;;;;;;;37.47;29.16;100838.78;5053636;28;20565;-64
2023/08/26 10:17:29;;;;;;;2.72;0.50;;;;;;;37.94;28.78;100832.84;5054480;28;19944;-64
2023/08/26 10:19:55;;;;;;;2.13;0.40;;;;;;;37.66;28.21;100833.94;5052681;28;20033;-63
2023/08/26 10:22:20;;;;;;;2.30;0.60;;;;;;;37.34;28.44;100834.75;5036366;28;20112;-64
2023/08/26 10:24:46;;;;;;;0.60;0.20;;;;;;;37.12;28.13;100843.81;5054249;28;20033;-63
2023/08/26 10:27:11;;;;;;;1.42;0.57;;;;;;;37.60;27.96;100843.53;5052958;28;20025;-63
2023/08/26 10:29:37;;;;;;;2.15;0.38;;;;;;;37.97;27.32;100843.38;5052834;28;20053;-64
2023/08/26 10:32:15;;;;;;;0.50;0.50;;;;;;;38.05;27.54;100839.88;5052729;28;20063;-66
2023/08/26 10:34:57;;;;;;;2.20;0.50;;;;;;;38.55;26.97;100837.97;5053109;28;20080;-64
2023/08/26 10:37:28;;;;;;;0.85;0.35;;;;;;;38.03;27.41;100833.75;5054070;28;20036;-63
2023/08/26 10:39:55;;;;;;;3.77;0.50;;;;;;;36.87;28.37;100841.41;5054302;28;20035;-63
2023/08/26 10:42:22;;;;;;;0.95;0.28;;;;;;;36.06;29.17;100842.53;5052656;28;20040;-63
2023/08/26 10:44:57;;;;;;;2.33;0.50;;;;;;;36.89;28.04;100844.72;5052737;28;20057;-63
2023/08/26 10:47:44;;;;;;;0.40;0.30;;;;;;;36.77;28.51;100836.78;5052176;28;20048;-63
2023/08/26 10:50:16;;;;;;;1.42;0.50;;;;;;;36.27;28.45;100836.69;5052319;28;20102;-63
2023/08/26 10:52:42;;;;;;;2.22;0.30;;;;;;;35.49;29.17;100848.09;5053554;28;20036;-63
2023/08/26 10:55:28;;;;;;;0.52;0.43;;;;;;;34.73;29.54;100840.34;5053626;28;20037;-63
2023/08/26 10:58:15;;;;;;;2.25;0.60;;;;;;;34.12;29.75;100844.56;5053400;28;20029;-63
2023/08/26 11:00:43;;;;;;;2.17;0.40;;;;;;;33.69;30.20;100835.81;5052267;28;20040;-63
2023/08/26 11:03:10;;;;;;;1.02;0.40;;;;;;;33.46;30.41;100835.53;5035502;28;20067;-62
2023/08/26 11:05:37;;;;;;;12.68;1.10;;;;;;;33.14;31.29;100833.88;5035245;28;20029;-63
2023/08/26 11:08:03;;;;;;;1.15;0.40;;;;;;;32.91;30.69;100836.34;5053183;28;20033;-63
2023/08/26 11:10:33;;;;;;;2.60;0.70;;;;;;;34.06;30.10;100835.38;5052034;28;20120;-63
2023/08/26 11:12:58;;;;;;;3.20;1.05;;;;;;;35.14;28.96;100829.78;5051884;28;20032;-63
2023/08/26 11:15:25;;;;;;;1.38;0.35;;;;;;;34.91;30.23;100831.31;5035180;28;20029;-63
2023/08/26 11:17:51;;;;;;;0.50;0.40;;;;;;;34.52;30.51;100830.44;5051660;28;20028;-63
2023/08/26 11:20:16;;;;;;;6.05;0.63;;;;;;;34.98;29.24;100823.47;5051642;28;20036;-63